createdAt,value
2019-02-09T00:01:41.146Z,6.88
2019-02-09T00:04:11.073Z,6.76
2019-02-09T00:06:40.277Z,6.87
2019-02-09T00:09:10.287Z,6.88
2019-02-09T00:11:40.394Z,6.87
2019-02-09T00:14:09.760Z,6.85
2019-02-09T00:16:39.316Z,6.80
2019-02-09T00:19:09.109Z,6.81
2019-02-09T00:21:38.697Z,6.78
2019-02-09T00:24:08.250Z,6.78
2019-02-09T00:26:38.004Z,6.76
2019-02-09T00:29:07.533Z,6.74
2019-02-09T00:31:37.056Z,6.72
2019-02-09T00:34:07.079Z,6.70
2019-02-09T00:36:36.304Z,6.67
2019-02-09T00:39:06.186Z,6.64
2019-02-09T00:41:36.205Z,6.50
2019-02-09T00:44:06.069Z,6.63
2019-02-09T00:46:35.489Z,6.61
2019-02-09T00:49:05.293Z,6.38
2019-02-09T00:51:34.844Z,6.64
2019-02-09T00:54:04.373Z,6.64
2019-02-09T00:56:34.485Z,6.30
2019-02-09T00:59:03.922Z,6.72
2019-02-09T01:01:33.264Z,6.72
2019-02-09T01:04:03.270Z,6.70
2019-02-09T01:06:32.869Z,6.19
2019-02-09T01:09:02.907Z,6.68
2019-02-09T01:11:32.665Z,6.71
2019-02-09T01:14:02.333Z,6.71
2019-02-09T01:16:31.586Z,6.70
2019-02-09T01:19:01.441Z,6.72
2019-02-09T01:21:30.754Z,6.74
2019-02-09T01:24:00.301Z,6.79
2019-02-09T01:26:30.228Z,6.68
2019-02-09T01:28:59.741Z,6.58
2019-02-09T01:31:29.243Z,6.75
2019-02-09T01:33:59.129Z,6.87
2019-02-09T01:36:28.659Z,6.89
2019-02-09T01:38:58.313Z,6.90
2019-02-09T01:41:28.062Z,6.92
2019-02-09T01:43:57.456Z,6.94
2019-02-09T01:46:26.879Z,6.98
2019-02-09T01:48:56.628Z,7.01
2019-02-09T01:51:25.948Z,7.02
2019-02-09T01:53:55.479Z,7.04
2019-02-09T01:56:25.527Z,7.09
2019-02-09T01:58:54.926Z,7.09
2019-02-09T02:01:24.148Z,7.10
2019-02-09T02:03:54.232Z,7.10
2019-02-09T02:06:23.740Z,7.08
2019-02-09T02:08:53.148Z,6.64
2019-02-09T02:11:23.392Z,7.03
2019-02-09T02:13:53.002Z,7.03
2019-02-09T02:16:22.540Z,7.03
2019-02-09T02:18:52.490Z,7.02
2019-02-09T02:21:34.564Z,7.05
2019-02-09T02:24:04.260Z,7.02
2019-02-09T02:26:33.543Z,6.99
2019-02-09T02:29:02.993Z,7.02
2019-02-09T02:31:32.745Z,6.88
2019-02-09T02:34:02.272Z,7.01
2019-02-09T02:36:31.839Z,7.01
2019-02-09T02:39:02.047Z,7.04
2019-02-09T02:41:31.413Z,7.02
2019-02-09T02:44:01.098Z,7.01
2019-02-09T02:46:30.870Z,7.01
2019-02-09T02:49:00.333Z,6.99
2019-02-09T02:51:29.830Z,6.97
2019-02-09T02:53:59.541Z,6.99
2019-02-09T02:56:29.250Z,7.04
2019-02-09T02:58:58.653Z,7.12
2019-02-09T03:01:28.475Z,7.16
2019-02-09T03:03:58.003Z,7.17
2019-02-09T03:06:27.368Z,7.20
2019-02-09T03:08:57.176Z,7.21
2019-02-09T03:11:26.614Z,7.23
2019-02-09T03:13:55.741Z,7.24
2019-02-09T03:16:25.666Z,7.25
2019-02-09T03:18:55.224Z,7.25
2019-02-09T03:21:24.592Z,7.25
2019-02-09T03:23:54.361Z,7.27
2019-02-09T03:26:23.719Z,6.78
2019-02-09T03:28:53.033Z,7.26
2019-02-09T03:31:23.047Z,7.24
2019-02-09T03:33:52.425Z,7.26
2019-02-09T03:36:21.859Z,7.25
2019-02-09T03:38:51.733Z,7.09
2019-02-09T03:41:21.222Z,7.21
2019-02-09T03:43:50.648Z,7.20
2019-02-09T03:46:20.336Z,7.14
2019-02-09T03:48:49.758Z,7.14
2019-02-09T03:51:19.171Z,6.77
2019-02-09T03:53:48.842Z,7.01
2019-02-09T03:56:18.321Z,6.98
2019-02-09T03:58:47.837Z,6.94
2019-02-09T04:01:17.480Z,6.91
2019-02-09T04:03:47.032Z,5.81
2019-02-09T04:06:16.369Z,6.68
2019-02-09T04:08:45.965Z,6.77
2019-02-09T04:11:15.506Z,6.72
2019-02-09T04:13:44.872Z,6.68
2019-02-09T04:16:14.400Z,6.63
2019-02-09T04:18:43.921Z,6.62
2019-02-09T04:21:13.388Z,6.59
2019-02-09T04:23:43.254Z,6.57
2019-02-09T04:26:12.638Z,6.59
2019-02-09T04:28:42.035Z,6.59
2019-02-09T04:31:11.903Z,5.09
2019-02-09T04:33:41.373Z,6.57
2019-02-09T04:36:10.863Z,6.58
2019-02-09T04:38:40.584Z,6.58
2019-02-09T04:41:09.865Z,6.58
2019-02-09T04:43:39.256Z,6.57
2019-02-09T04:46:08.928Z,5.56
2019-02-09T04:48:38.520Z,6.58
2019-02-09T04:51:08.013Z,6.57
2019-02-09T04:53:37.671Z,6.61
2019-02-09T04:56:07.217Z,6.59
2019-02-09T04:58:36.596Z,6.60
2019-02-09T05:01:13.782Z,6.58
2019-02-09T05:03:35.772Z,6.59
2019-02-09T05:06:05.480Z,6.59
2019-02-09T05:09:38.028Z,6.63
2019-02-09T05:12:07.562Z,6.49
2019-02-09T05:14:37.366Z,6.61
2019-02-09T05:17:06.789Z,6.63
2019-02-09T05:19:36.213Z,6.63
2019-02-09T05:22:06.001Z,6.39
2019-02-09T05:24:35.773Z,6.62
2019-02-09T05:27:05.399Z,6.61
2019-02-09T05:29:35.032Z,6.63
2019-02-09T05:32:04.447Z,6.65
2019-02-09T05:34:33.910Z,6.64
2019-02-09T05:37:03.668Z,6.65
2019-02-09T05:39:33.891Z,6.68
2019-02-09T05:42:02.773Z,6.70
2019-02-09T05:44:32.777Z,5.86
2019-02-09T05:47:02.343Z,6.76
2019-02-09T05:49:31.752Z,6.77
2019-02-09T05:52:01.680Z,6.76
2019-02-09T05:54:31.050Z,6.75
2019-02-09T05:57:00.413Z,6.75
2019-02-09T05:59:30.416Z,6.69
2019-02-09T06:01:59.917Z,6.63
2019-02-09T06:04:29.680Z,6.57
2019-02-09T06:07:05.248Z,6.51
2019-02-09T06:09:34.835Z,6.48
2019-02-09T06:12:04.450Z,6.44
2019-02-09T06:14:34.347Z,6.40
2019-02-09T06:17:03.887Z,5.79
2019-02-09T06:19:33.467Z,6.35
2019-02-09T06:22:03.463Z,6.32
2019-02-09T06:24:32.849Z,6.27
2019-02-09T06:27:02.264Z,6.27
2019-02-09T06:29:32.069Z,6.27
2019-02-09T06:32:01.677Z,6.26
2019-02-09T06:34:30.975Z,6.23
2019-02-09T06:37:01.754Z,6.23
2019-02-09T06:39:31.191Z,5.38
2019-02-09T06:42:00.359Z,6.28
2019-02-09T06:44:30.386Z,6.30
2019-02-09T06:46:59.596Z,6.36
2019-02-09T06:49:29.237Z,6.43
2019-02-09T06:51:59.068Z,6.37
2019-02-09T06:54:28.644Z,6.54
2019-02-09T06:56:57.871Z,6.57
2019-02-09T06:59:27.756Z,6.54
2019-02-09T07:01:56.964Z,6.57
2019-02-09T07:04:26.483Z,4.83
2019-02-09T07:06:56.449Z,6.59
2019-02-09T07:09:25.974Z,6.59
2019-02-09T07:11:55.825Z,6.59
2019-02-09T07:14:25.736Z,6.62
2019-02-09T07:16:55.070Z,6.65
2019-02-09T07:19:26.103Z,6.68
2019-02-09T07:21:54.286Z,6.70
2019-02-09T07:24:23.820Z,6.69
2019-02-09T07:26:53.347Z,6.70
2019-02-09T07:29:23.131Z,6.73
2019-02-09T07:31:56.547Z,6.75
2019-02-09T07:34:22.219Z,6.80
2019-02-09T07:36:51.682Z,6.84
2019-02-09T07:39:21.791Z,6.00
2019-02-09T07:41:52.346Z,6.17
2019-02-09T07:44:22.255Z,6.85
2019-02-09T07:46:51.612Z,6.78
2019-02-09T07:49:21.016Z,7.06
2019-02-09T07:51:50.766Z,7.15
2019-02-09T07:54:20.324Z,5.76
2019-02-09T07:56:49.670Z,7.20
2019-02-09T07:59:19.354Z,7.27
2019-02-09T08:01:48.618Z,7.36
2019-02-09T08:04:18.336Z,7.39
2019-02-09T08:06:47.901Z,7.49
2019-02-09T08:09:17.515Z,7.58
2019-02-09T08:11:46.839Z,7.70
2019-02-09T08:14:16.666Z,7.81
2019-02-09T08:16:46.175Z,7.33
2019-02-09T08:19:15.476Z,7.58
2019-02-09T08:21:45.068Z,7.76
2019-02-09T08:24:14.700Z,7.69
2019-02-09T08:26:44.279Z,7.68
2019-02-09T08:29:14.012Z,7.76
2019-02-09T08:31:43.252Z,7.85
2019-02-09T08:34:12.435Z,8.03
2019-02-09T08:36:42.596Z,8.17
2019-02-09T08:39:12.195Z,8.29
2019-02-09T08:41:41.894Z,8.43
2019-02-09T08:44:11.747Z,8.56
2019-02-09T08:46:41.272Z,8.46
2019-02-09T08:49:10.840Z,7.12
2019-02-09T08:51:40.392Z,8.92
2019-02-09T08:54:09.814Z,9.05
2019-02-09T08:56:38.977Z,8.79
2019-02-09T08:59:08.424Z,9.08
2019-02-09T09:01:37.556Z,9.02
2019-02-09T09:04:06.731Z,8.92
2019-02-09T09:06:36.522Z,8.85
2019-02-09T09:09:10.108Z,8.85
2019-02-09T09:11:39.249Z,8.97
2019-02-09T09:14:08.692Z,9.12
2019-02-09T09:16:37.871Z,8.92
2019-02-09T09:19:07.660Z,9.01
2019-02-09T09:21:37.101Z,8.98
2019-02-09T09:24:06.992Z,8.91
2019-02-09T09:26:36.540Z,8.91
2019-02-09T09:29:06.366Z,8.95
2019-02-09T09:31:36.000Z,9.01
2019-02-09T09:34:05.356Z,8.98
2019-02-09T09:36:34.921Z,8.91
2019-02-09T09:39:05.573Z,9.00
2019-02-09T09:41:34.898Z,9.21
2019-02-09T09:44:04.441Z,9.34
2019-02-09T09:46:33.680Z,9.47
2019-02-09T09:49:02.834Z,9.48
2019-02-09T09:51:32.388Z,9.51
2019-02-09T09:54:01.814Z,9.53
2019-02-09T09:56:30.948Z,9.43
2019-02-09T09:59:00.389Z,9.43
2019-02-09T10:01:29.766Z,9.06
2019-02-09T10:03:59.170Z,9.48
2019-02-09T10:06:28.755Z,9.47
2019-02-09T10:08:57.924Z,9.52
2019-02-09T10:11:27.138Z,9.62
2019-02-09T10:13:56.814Z,9.57
2019-02-09T10:16:26.176Z,9.50
2019-02-09T10:18:55.924Z,9.47
2019-02-09T10:21:25.476Z,9.46
2019-02-09T10:23:54.630Z,9.53
2019-02-09T10:26:24.134Z,9.56
2019-02-09T10:28:53.564Z,9.59
2019-02-09T10:31:23.448Z,9.67
2019-02-09T10:33:52.811Z,9.78
2019-02-09T10:36:22.434Z,9.88
2019-02-09T10:38:52.071Z,10.00
2019-02-09T10:41:21.584Z,10.01
2019-02-09T10:43:51.863Z,10.00
2019-02-09T10:46:21.572Z,9.90
2019-02-09T10:48:51.063Z,9.80
2019-02-09T10:51:21.179Z,9.82
2019-02-09T10:53:50.404Z,9.94
2019-02-09T10:56:19.820Z,10.11
2019-02-09T10:58:49.355Z,10.35
2019-02-09T11:01:20.717Z,10.55
2019-02-09T11:03:50.232Z,10.52
2019-02-09T11:06:19.979Z,10.47
2019-02-09T11:08:49.394Z,10.44
2019-02-09T11:11:18.665Z,10.51
2019-02-09T11:13:48.116Z,10.60
2019-02-09T11:16:26.615Z,10.64
2019-02-09T11:18:56.124Z,10.79
2019-02-09T11:21:25.636Z,10.71
2019-02-09T11:23:54.923Z,10.54
2019-02-09T11:26:24.352Z,10.56
2019-02-09T11:28:53.507Z,10.85
2019-02-09T11:31:22.755Z,10.74
2019-02-09T11:33:52.713Z,11.10
2019-02-09T11:36:22.665Z,11.05
2019-02-09T11:38:52.010Z,11.08
2019-02-09T11:41:22.045Z,11.16
2019-02-09T11:43:51.406Z,11.19
2019-02-09T11:46:20.900Z,11.32
2019-02-09T11:48:51.516Z,11.40
2019-02-09T11:51:20.973Z,11.39
2019-02-09T11:53:50.252Z,11.39
2019-02-09T11:56:20.524Z,11.51
2019-02-09T11:58:50.514Z,11.51
2019-02-09T12:01:20.920Z,11.42
2019-02-09T12:03:50.751Z,11.12
2019-02-09T12:06:20.029Z,11.30
2019-02-09T12:08:53.387Z,11.21
2019-02-09T12:11:22.880Z,11.39
2019-02-09T12:13:55.302Z,11.22
2019-02-09T12:16:22.019Z,10.93
2019-02-09T12:18:52.179Z,10.94
2019-02-09T12:21:21.671Z,10.94
2019-02-09T12:23:51.073Z,11.06
2019-02-09T12:26:20.562Z,11.04
2019-02-09T12:28:49.914Z,10.98
2019-02-09T12:31:19.242Z,10.93
2019-02-09T12:33:49.210Z,10.91
2019-02-09T12:36:18.596Z,10.89
2019-02-09T12:38:50.002Z,10.95
2019-02-09T12:41:19.892Z,11.10
2019-02-09T12:43:49.168Z,11.20
2019-02-09T12:46:18.732Z,11.18
2019-02-09T12:48:49.018Z,11.07
2019-02-09T12:51:18.836Z,10.54
2019-02-09T12:53:49.043Z,11.03
2019-02-09T12:56:19.300Z,11.17
2019-02-09T12:58:49.545Z,11.17
2019-02-09T13:01:19.164Z,10.95
2019-02-09T13:03:48.760Z,10.91
2019-02-09T13:06:18.225Z,10.74
2019-02-09T13:08:47.807Z,10.76
2019-02-09T13:11:17.323Z,10.71
2019-02-09T13:13:46.884Z,10.97
2019-02-09T13:16:16.442Z,11.01
2019-02-09T13:18:46.388Z,10.91
2019-02-09T13:21:15.652Z,10.79
2019-02-09T13:23:45.480Z,10.74
2019-02-09T13:26:15.208Z,10.70
2019-02-09T13:28:44.676Z,10.67
2019-02-09T13:31:14.105Z,10.66
2019-02-09T13:33:43.777Z,10.61
2019-02-09T13:36:13.275Z,8.81
2019-02-09T13:38:42.466Z,10.15
2019-02-09T13:41:12.020Z,10.43
2019-02-09T13:43:41.611Z,10.43
2019-02-09T13:46:10.940Z,10.16
2019-02-09T13:48:40.769Z,10.50
2019-02-09T13:51:10.121Z,10.54
2019-02-09T13:53:39.293Z,10.58
2019-02-09T13:56:09.057Z,10.56
2019-02-09T13:58:38.215Z,10.35
2019-02-09T14:01:07.375Z,10.56
2019-02-09T14:03:37.576Z,10.61
2019-02-09T14:06:08.287Z,10.49
2019-02-09T14:08:36.120Z,10.75
2019-02-09T14:11:06.235Z,10.74
2019-02-09T14:13:35.602Z,10.70
2019-02-09T14:16:08.377Z,10.57
2019-02-09T14:18:34.896Z,10.65
2019-02-09T14:21:04.363Z,10.57
2019-02-09T14:23:33.595Z,10.49
2019-02-09T14:26:03.248Z,10.43
2019-02-09T14:28:32.949Z,10.38
2019-02-09T14:31:02.303Z,10.32
2019-02-09T14:33:32.156Z,10.32
2019-02-09T14:36:01.404Z,10.27
2019-02-09T14:38:30.732Z,10.25
2019-02-09T14:41:00.398Z,10.24
2019-02-09T14:43:30.637Z,10.23
2019-02-09T14:45:59.888Z,10.21
2019-02-09T14:48:29.795Z,10.22
2019-02-09T14:50:59.097Z,10.27
2019-02-09T14:53:28.559Z,10.29
2019-02-09T14:55:58.599Z,10.26
2019-02-09T14:58:27.777Z,10.10
2019-02-09T15:00:56.988Z,10.16
2019-02-09T15:03:30.601Z,10.10
2019-02-09T15:05:56.757Z,10.07
2019-02-09T15:08:26.943Z,10.05
2019-02-09T15:11:01.216Z,10.06
2019-02-09T15:13:34.216Z,10.06
2019-02-09T15:16:15.331Z,10.07
2019-02-09T15:18:44.778Z,10.11
2019-02-09T15:21:17.730Z,10.16
2019-02-09T15:23:47.020Z,10.17
2019-02-09T15:26:16.549Z,10.15
2019-02-09T15:28:46.189Z,10.12
2019-02-09T15:31:15.384Z,10.07
2019-02-09T15:33:50.816Z,10.00
2019-02-09T15:36:20.249Z,9.94
2019-02-09T15:38:49.822Z,9.89
2019-02-09T15:41:19.020Z,9.86
2019-02-09T15:43:48.721Z,9.81
2019-02-09T15:46:18.493Z,9.76
2019-02-09T15:48:48.096Z,9.69
2019-02-09T15:51:17.590Z,9.16
2019-02-09T15:53:47.064Z,9.63
2019-02-09T15:56:16.816Z,9.59
2019-02-09T15:58:46.523Z,9.21
2019-02-09T16:01:15.784Z,9.40
2019-02-09T16:03:45.254Z,9.46
2019-02-09T16:06:14.980Z,9.42
2019-02-09T16:08:44.264Z,9.38
2019-02-09T16:11:13.674Z,9.34
2019-02-09T16:13:45.852Z,9.09
2019-02-09T16:16:12.878Z,9.24
2019-02-09T16:18:42.412Z,9.20
2019-02-09T16:21:12.108Z,9.15
2019-02-09T16:23:41.340Z,9.10
2019-02-09T16:26:10.931Z,9.04
2019-02-09T16:28:40.713Z,9.01
2019-02-09T16:31:10.175Z,8.99
2019-02-09T16:33:39.820Z,8.96
2019-02-09T16:36:09.722Z,8.95
2019-02-09T16:38:39.554Z,8.58
2019-02-09T16:41:08.236Z,8.86
2019-02-09T16:43:37.959Z,8.82
2019-02-09T16:46:07.346Z,8.77
2019-02-09T16:48:36.494Z,8.54
2019-02-09T16:51:06.254Z,8.72
2019-02-09T16:53:35.460Z,8.70
2019-02-09T16:56:09.068Z,8.67
2019-02-09T16:58:38.863Z,8.63
2019-02-09T17:01:08.108Z,8.61
2019-02-09T17:03:37.517Z,8.60
2019-02-09T17:06:07.402Z,8.47
2019-02-09T17:08:36.871Z,8.57
2019-02-09T17:11:06.456Z,8.54
2019-02-09T17:13:36.901Z,8.56
2019-02-09T17:16:06.274Z,8.55
2019-02-09T17:18:35.978Z,8.56
2019-02-09T17:21:05.788Z,8.54
2019-02-09T17:23:35.267Z,8.52
2019-02-09T17:26:05.674Z,8.49
2019-02-09T17:28:35.777Z,8.47
2019-02-09T17:31:05.233Z,8.45
2019-02-09T17:33:34.916Z,6.72
2019-02-09T17:36:04.454Z,8.39
2019-02-09T17:38:33.801Z,8.37
2019-02-09T17:41:03.265Z,8.36
2019-02-09T17:43:32.940Z,8.33
2019-02-09T17:46:07.496Z,8.29
2019-02-09T17:48:36.947Z,7.09
2019-02-09T17:51:06.668Z,8.27
2019-02-09T17:53:35.964Z,8.25
2019-02-09T17:56:05.489Z,8.24
2019-02-09T17:58:35.342Z,8.26
2019-02-09T18:01:08.017Z,8.27
2019-02-09T18:03:37.328Z,8.29
2019-02-09T18:06:08.266Z,8.30
2019-02-09T18:08:37.595Z,8.28
2019-02-09T18:11:07.440Z,8.28
2019-02-09T18:13:37.136Z,8.17
2019-02-09T18:16:06.936Z,7.70
2019-02-09T18:18:36.384Z,8.26
2019-02-09T18:21:05.975Z,7.92
2019-02-09T18:23:35.639Z,8.21
2019-02-09T18:26:05.104Z,8.21
2019-02-09T18:28:34.787Z,7.64
2019-02-09T18:31:04.821Z,8.20
2019-02-09T18:33:34.066Z,8.19
2019-02-09T18:36:03.812Z,6.54
2019-02-09T18:38:33.050Z,8.18
2019-02-09T18:41:02.725Z,8.08
2019-02-09T18:43:32.571Z,8.15
2019-02-09T18:46:01.870Z,8.14
2019-02-09T18:48:31.748Z,8.13
2019-02-09T18:51:01.228Z,8.12
2019-02-09T18:53:30.503Z,8.08
2019-02-09T18:55:59.864Z,8.05
2019-02-09T18:58:30.148Z,8.04
2019-02-09T19:01:00.336Z,8.01
2019-02-09T19:03:29.659Z,8.01
2019-02-09T19:05:59.293Z,8.01
2019-02-09T19:08:28.444Z,7.99
2019-02-09T19:10:57.676Z,7.97
2019-02-09T19:13:27.671Z,7.93
2019-02-09T19:15:56.859Z,7.92
2019-02-09T19:18:26.071Z,7.91
2019-02-09T19:21:01.111Z,7.90
2019-02-09T19:23:36.391Z,7.66
2019-02-09T19:26:10.088Z,7.85
2019-02-09T19:28:39.367Z,7.83
2019-02-09T19:31:08.595Z,7.80
2019-02-09T19:33:38.170Z,7.78
2019-02-09T19:36:08.057Z,7.77
2019-02-09T19:38:37.276Z,7.75
2019-02-09T19:41:07.160Z,7.74
2019-02-09T19:43:36.996Z,7.74
2019-02-09T19:46:07.393Z,7.75
2019-02-09T19:48:36.929Z,7.77
2019-02-09T19:51:06.952Z,7.80
2019-02-09T19:53:37.440Z,7.80
2019-02-09T19:56:07.049Z,7.79
2019-02-09T19:58:38.545Z,7.77
2019-02-09T20:01:08.068Z,7.73
2019-02-09T20:03:37.717Z,7.68
2019-02-09T20:06:06.974Z,7.66
2019-02-09T20:08:36.275Z,7.64
2019-02-09T20:11:06.243Z,7.63
2019-02-09T20:13:35.412Z,7.62
2019-02-09T20:16:05.759Z,7.61
2019-02-09T20:18:35.473Z,7.58
2019-02-09T20:21:05.173Z,7.58
2019-02-09T20:23:34.525Z,7.57
2019-02-09T20:26:05.521Z,7.57
2019-02-09T20:28:35.157Z,7.26
2019-02-09T20:31:08.024Z,6.82
2019-02-09T20:33:38.729Z,7.58
2019-02-09T20:36:08.116Z,7.60
2019-02-09T20:38:38.115Z,7.61
2019-02-09T20:41:16.126Z,7.62
2019-02-09T20:43:48.481Z,6.40
2019-02-09T20:46:18.689Z,7.71
2019-02-09T20:48:48.789Z,7.73
2019-02-09T20:51:24.438Z,7.71
2019-02-09T20:53:54.005Z,7.68
2019-02-09T20:56:27.821Z,7.12
2019-02-09T20:58:57.294Z,7.65
2019-02-09T21:01:29.085Z,7.62
2019-02-09T21:03:58.639Z,7.59
2019-02-09T21:06:28.053Z,7.60
2019-02-09T21:08:57.648Z,7.59
2019-02-09T21:11:27.246Z,7.61
2019-02-09T21:13:57.018Z,7.25
2019-02-09T21:16:26.819Z,7.31
2019-02-09T21:18:57.406Z,7.63
2019-02-09T21:21:28.880Z,7.52
2019-02-09T21:23:58.582Z,7.55
2019-02-09T21:26:27.859Z,7.51
2019-02-09T21:28:57.313Z,7.62
2019-02-09T21:31:27.223Z,7.37
2019-02-09T21:33:56.434Z,7.63
2019-02-09T21:36:25.782Z,7.60
2019-02-09T21:38:55.748Z,7.60
2019-02-09T21:41:25.154Z,7.63
2019-02-09T21:43:54.503Z,7.65
2019-02-09T21:46:24.050Z,7.65
2019-02-09T21:48:53.408Z,7.65
2019-02-09T21:51:22.714Z,7.62
2019-02-09T21:53:52.284Z,7.61
2019-02-09T21:56:22.000Z,7.56
2019-02-09T21:58:51.329Z,7.53
2019-02-09T22:01:21.016Z,7.51
2019-02-09T22:03:50.592Z,7.48
2019-02-09T22:06:20.122Z,7.10
2019-02-09T22:08:49.679Z,7.45
2019-02-09T22:11:19.315Z,7.47
2019-02-09T22:13:48.713Z,7.45
2019-02-09T22:16:18.565Z,7.44
2019-02-09T22:18:48.605Z,7.40
2019-02-09T22:21:17.937Z,7.40
2019-02-09T22:23:47.955Z,6.09
2019-02-09T22:26:17.272Z,7.34
2019-02-09T22:28:46.651Z,7.31
2019-02-09T22:31:21.711Z,7.16
2019-02-09T22:33:46.243Z,7.05
2019-02-09T22:36:16.322Z,7.22
2019-02-09T22:38:45.788Z,7.21
2019-02-09T22:41:15.841Z,6.97
2019-02-09T22:43:45.097Z,7.19
2019-02-09T22:46:14.623Z,7.23
2019-02-09T22:48:46.174Z,7.24
2019-02-09T22:51:15.719Z,7.27
2019-02-09T22:53:45.433Z,7.25
2019-02-09T22:56:14.752Z,7.23
2019-02-09T22:58:44.296Z,7.24
2019-02-09T23:01:46.780Z,7.26
2019-02-09T23:06:31.531Z,7.31
2019-02-09T23:09:00.883Z,6.93
2019-02-09T23:11:30.514Z,7.36
2019-02-09T23:14:00.370Z,6.77
2019-02-09T23:16:29.939Z,7.35
2019-02-09T23:18:59.869Z,7.35
2019-02-09T23:21:29.406Z,7.34
2019-02-09T23:23:58.974Z,7.31
2019-02-09T23:26:28.444Z,7.27
2019-02-09T23:28:57.969Z,7.23
2019-02-09T23:31:28.439Z,7.22
2019-02-09T23:33:57.665Z,7.18
2019-02-09T23:36:27.255Z,7.17
2019-02-09T23:38:56.817Z,6.60
2019-02-09T23:41:26.149Z,7.14
2019-02-09T23:44:01.291Z,7.12
2019-02-09T23:46:30.764Z,7.11
2019-02-09T23:49:00.168Z,7.06
2019-02-09T23:51:29.868Z,6.20
2019-02-09T23:53:59.553Z,7.00
2019-02-09T23:56:28.729Z,6.97
2019-02-09T23:58:58.483Z,6.96
